KTMB/TMB METAR and TAF weather

Enter ICAO airport designator
Station Type Date Time Source
KTMB METAR 2022/06/27 17:53 UTC NOAA

KTMB 271753Z VRB04KT 10SM VCTS BKN047 BKN055 32/22 A3000 RMK AO2 LTG DSNT N TSB16E31 SLP159 60000 T03220217 10328 20272 57011


Station Type Date Time Source
KTMB Decoded METAR 2022/06/27 17:53 UTC NOAA

KENDALL-TAMIAMI EXEC AIRPORT , FL, United States (KTMB) 25-39N 080-26W 2M
Jun 27, 2022 - 01:53 PM EDT / 2022.06.27 1753 UTC
Wind: Variable at 5 MPH (4 KT):0
Visibility: 10 mile(s):0
Sky conditions: mostly cloudy
Weather: thunder in the vicinity; Lightning observed
Temperature: 90.0 F (32.2 C)
Heat index: 96.1 F (35.6 C):1
Dew Point: 71.1 F (21.7 C)
Relative Humidity: 53%
Pressure (altimeter): 30 in. Hg (1015 hPa)
Pressure tendency: 0.03 inches (1.1 hPa) lower than three hours ago
ob: KTMB 271753Z VRB04KT 10SM VCTS BKN047 BKN055 32/22 A3000 RMK AO2 LTG DSNT N TSB16E31 SLP159 60000 T03220217 10328 20272 57011
cycle: 18

Station Type Date Time Source
KTMB TAF 2022/06/27 18:24 UTC NOAA

TAF KTMB 271723Z 2718/2818 12010KT P6SM VCTS SCT025CB BKN050
FM272000 12010KT P6SM SCT030 BKN060
FM280100 VRB04KT P6SM SCT030 BKN050
FM281500 13010KT P6SM VCSH SCT030 BKN050
FM281700 13010KT P6SM VCTS SCT025CB BKN050

Example: see airport list